createdAt,value
2017-11-04T00:02:18.741Z,84.20
2017-11-04T00:04:53.967Z,84.70
2017-11-04T00:07:28.130Z,84.20
2017-11-04T00:10:01.937Z,84.20
2017-11-04T00:12:37.389Z,84.80
2017-11-04T00:15:11.158Z,84.40
2017-11-04T00:17:45.892Z,84.80
2017-11-04T00:20:19.967Z,84.40
2017-11-04T00:22:53.722Z,84.40
2017-11-04T00:25:27.868Z,84.50
2017-11-04T00:28:03.789Z,85.00
2017-11-04T00:30:38.263Z,84.50
2017-11-04T00:33:13.476Z,84.50
2017-11-04T00:35:48.431Z,84.60
2017-11-04T00:38:22.797Z,84.60
2017-11-04T00:40:57.531Z,85.70
2017-11-04T00:43:32.561Z,84.50
2017-11-04T00:46:06.880Z,84.50
2017-11-04T00:48:41.230Z,84.50
2017-11-04T00:51:15.132Z,84.80
2017-11-04T00:53:49.329Z,85.10
2017-11-04T00:56:24.277Z,85.00
2017-11-04T00:58:58.627Z,85.00
2017-11-04T01:01:32.960Z,85.00
2017-11-04T01:04:07.787Z,85.70
2017-11-04T01:06:42.214Z,85.00
2017-11-04T01:09:16.823Z,85.10
2017-11-04T01:11:51.052Z,85.00
2017-11-04T01:14:25.331Z,85.10
2017-11-04T01:17:00.238Z,85.20
2017-11-04T01:19:34.446Z,85.20
2017-11-04T01:22:08.743Z,85.30
2017-11-04T01:24:43.660Z,85.40
2017-11-04T01:27:18.612Z,85.40
2017-11-04T01:29:52.838Z,85.40
2017-11-04T01:32:26.673Z,85.50
2017-11-04T01:35:00.709Z,85.20
2017-11-04T01:37:34.407Z,85.10
2017-11-04T01:40:08.297Z,84.90
2017-11-04T01:42:42.841Z,84.80
2017-11-04T01:45:17.504Z,85.00
2017-11-04T01:47:51.219Z,84.70
2017-11-04T01:50:25.187Z,84.70
2017-11-04T01:52:59.809Z,84.80
2017-11-04T01:55:33.618Z,84.70
2017-11-04T01:58:07.399Z,84.90
2017-11-04T02:00:41.253Z,85.00
2017-11-04T02:03:15.281Z,84.60
2017-11-04T02:05:50.201Z,85.10
2017-11-04T02:08:24.531Z,85.10
2017-11-04T02:10:58.749Z,85.10
2017-11-04T02:13:33.105Z,85.20
2017-11-04T02:16:07.092Z,85.20
2017-11-04T02:18:41.269Z,84.80
2017-11-04T02:21:16.178Z,85.50
2017-11-04T02:23:50.020Z,84.90
2017-11-04T02:26:24.321Z,85.30
2017-11-04T02:28:59.243Z,85.40
2017-11-04T02:31:34.465Z,85.50
2017-11-04T02:34:09.733Z,85.50
2017-11-04T02:36:44.157Z,85.40
2017-11-04T02:39:18.294Z,85.50
2017-11-04T02:41:52.538Z,85.20
2017-11-04T02:44:26.377Z,85.10
2017-11-04T02:47:00.354Z,85.10
2017-11-04T02:49:34.020Z,85.20
2017-11-04T02:52:07.818Z,85.20
2017-11-04T02:54:41.607Z,85.30
2017-11-04T02:57:15.584Z,85.30
2017-11-04T02:59:49.311Z,85.40
2017-11-04T03:02:23.645Z,85.30
2017-11-04T03:04:58.391Z,85.70
2017-11-04T03:07:33.193Z,85.30
2017-11-04T03:10:07.435Z,85.20
2017-11-04T03:12:41.406Z,85.20
2017-11-04T03:15:15.672Z,85.20
2017-11-04T03:17:50.596Z,85.70
2017-11-04T03:20:25.053Z,85.00
2017-11-04T03:22:59.681Z,84.80
2017-11-04T03:25:34.302Z,84.70
2017-11-04T03:28:09.031Z,84.60
2017-11-04T03:30:43.190Z,84.40
2017-11-04T03:33:18.623Z,84.80
2017-11-04T03:35:53.290Z,84.50
2017-11-04T03:38:27.201Z,84.40
2017-11-04T03:41:01.491Z,84.40
2017-11-04T03:43:36.890Z,85.50
2017-11-04T03:46:11.438Z,84.90
2017-11-04T03:48:47.411Z,84.40
2017-11-04T03:51:21.917Z,84.30
2017-11-04T03:53:56.163Z,84.40
2017-11-04T03:56:29.883Z,84.30
2017-11-04T03:59:03.743Z,84.50
2017-11-04T04:01:38.267Z,85.10
2017-11-04T04:04:12.379Z,84.60
2017-11-04T04:06:46.194Z,84.60
2017-11-04T04:09:20.931Z,84.70
2017-11-04T04:11:55.989Z,84.60
2017-11-04T04:14:30.985Z,84.60
2017-11-04T04:17:06.468Z,84.50
2017-11-04T04:19:41.029Z,84.50
2017-11-04T04:22:16.309Z,84.90
2017-11-04T04:24:50.817Z,84.30
2017-11-04T04:27:25.659Z,84.40
2017-11-04T04:30:00.105Z,84.40
2017-11-04T04:32:34.633Z,84.40
2017-11-04T04:35:08.810Z,84.40
2017-11-04T04:37:42.900Z,84.30
2017-11-04T04:40:17.832Z,84.30
2017-11-04T04:42:51.596Z,84.40
2017-11-04T04:45:25.545Z,84.50
2017-11-04T04:47:59.718Z,84.40
2017-11-04T04:50:34.391Z,84.90
2017-11-04T04:53:08.645Z,84.30
2017-11-04T04:55:43.823Z,84.40
2017-11-04T04:58:18.161Z,84.40
2017-11-04T05:00:52.212Z,84.30
2017-11-04T05:03:26.800Z,84.40
2017-11-04T05:06:01.544Z,84.30
2017-11-04T05:08:36.682Z,84.30
2017-11-04T05:11:11.393Z,85.00
2017-11-04T05:13:46.532Z,84.90
2017-11-04T05:16:20.745Z,84.40
2017-11-04T05:18:55.886Z,84.80
2017-11-04T05:21:30.804Z,84.30
2017-11-04T05:24:04.565Z,84.30
2017-11-04T05:26:39.555Z,84.40
2017-11-04T05:29:14.382Z,84.90
2017-11-04T05:31:48.496Z,84.50
2017-11-04T05:34:23.352Z,84.70
2017-11-04T05:36:58.216Z,84.40
2017-11-04T05:39:33.217Z,84.50
2017-11-04T05:42:07.818Z,84.50
2017-11-04T05:44:42.346Z,84.40
2017-11-04T05:47:17.068Z,84.90
2017-11-04T05:49:51.936Z,84.40
2017-11-04T05:52:25.828Z,84.40
2017-11-04T05:55:00.637Z,84.90
2017-11-04T05:57:34.986Z,84.40
2017-11-04T06:00:09.445Z,84.40
2017-11-04T06:02:43.468Z,84.40
2017-11-04T06:05:17.324Z,84.30
2017-11-04T06:07:51.601Z,84.20
2017-11-04T06:10:26.750Z,84.20
2017-11-04T06:13:01.183Z,83.80
2017-11-04T06:15:37.125Z,84.30
2017-11-04T06:18:11.569Z,83.90
2017-11-04T06:20:45.396Z,83.70
2017-11-04T06:23:19.296Z,83.50
2017-11-04T06:25:53.172Z,83.50
2017-11-04T06:28:26.900Z,83.50
2017-11-04T06:31:00.817Z,83.50
2017-11-04T06:33:34.876Z,83.30
2017-11-04T06:36:09.435Z,83.30
2017-11-04T06:38:43.804Z,83.50
2017-11-04T06:41:18.468Z,83.40
2017-11-04T06:43:52.870Z,83.60
2017-11-04T06:46:27.209Z,83.70
2017-11-04T06:49:01.487Z,83.40
2017-11-04T06:51:36.114Z,82.80
2017-11-04T06:54:10.492Z,82.70
2017-11-04T06:56:44.577Z,82.40
2017-11-04T06:59:19.462Z,82.90
2017-11-04T07:01:54.308Z,82.30
2017-11-04T07:04:28.453Z,82.30
2017-11-04T07:07:02.166Z,82.20
2017-11-04T07:09:37.086Z,82.20
2017-11-04T07:12:12.721Z,82.10
2017-11-04T07:14:47.434Z,82.50
2017-11-04T07:17:21.818Z,82.00
2017-11-04T07:19:55.981Z,81.70
2017-11-04T07:22:30.810Z,82.00
2017-11-04T07:25:05.220Z,81.40
2017-11-04T07:27:39.825Z,81.40
2017-11-04T07:30:14.014Z,81.30
2017-11-04T07:32:49.558Z,81.10
2017-11-04T07:35:24.772Z,80.50
2017-11-04T07:37:58.365Z,80.70
2017-11-04T07:40:32.414Z,80.40
2017-11-04T07:43:08.746Z,80.00
2017-11-04T07:45:43.223Z,79.80
2017-11-04T07:48:19.182Z,79.90
2017-11-04T07:50:54.557Z,79.20
2017-11-04T07:53:29.260Z,79.30
2017-11-04T07:56:04.023Z,79.00
2017-11-04T07:58:40.414Z,78.90
2017-11-04T08:01:17.231Z,78.90
2017-11-04T08:03:54.271Z,78.50
2017-11-04T08:06:27.973Z,78.70
2017-11-04T08:09:02.393Z,78.40
2017-11-04T08:11:36.742Z,77.90
2017-11-04T08:14:11.258Z,76.30
2017-11-04T08:16:45.598Z,74.90
2017-11-04T08:19:19.869Z,74.10
2017-11-04T08:21:54.977Z,73.50
2017-11-04T08:24:29.429Z,73.00
2017-11-04T08:27:03.608Z,73.30
2017-11-04T08:29:37.847Z,73.30
2017-11-04T08:32:12.397Z,73.70
2017-11-04T08:34:46.765Z,74.00
2017-11-04T08:37:20.655Z,73.60
2017-11-04T08:39:54.720Z,73.30
2017-11-04T08:42:29.272Z,73.30
2017-11-04T08:45:04.350Z,73.70
2017-11-04T08:47:39.221Z,73.60
2017-11-04T08:50:13.630Z,73.80
2017-11-04T08:52:47.775Z,73.90
2017-11-04T08:55:22.722Z,73.20
2017-11-04T08:57:56.725Z,72.30
2017-11-04T09:00:30.597Z,71.80
2017-11-04T09:03:06.198Z,71.20
2017-11-04T09:05:42.077Z,71.00
2017-11-04T09:08:15.836Z,70.90
2017-11-04T09:10:50.090Z,70.30
2017-11-04T09:13:24.492Z,70.70
2017-11-04T09:15:59.323Z,70.30
2017-11-04T09:18:34.041Z,69.90
2017-11-04T09:21:08.620Z,69.30
2017-11-04T09:23:42.986Z,67.40
2017-11-04T09:26:16.926Z,66.70
2017-11-04T09:28:51.661Z,67.10
2017-11-04T09:31:25.642Z,67.30
2017-11-04T09:34:00.560Z,69.90
2017-11-04T09:36:34.213Z,69.10
2017-11-04T09:39:08.317Z,69.40
2017-11-04T09:41:42.486Z,69.90
2017-11-04T09:44:16.826Z,70.80
2017-11-04T09:46:51.684Z,70.90
2017-11-04T09:49:26.076Z,70.90
2017-11-04T09:52:00.644Z,67.20
2017-11-04T09:54:35.394Z,65.90
2017-11-04T09:57:15.221Z,65.80
2017-11-04T09:59:49.971Z,62.40
2017-11-04T10:02:23.890Z,62.30
2017-11-04T10:04:58.517Z,58.30
2017-11-04T10:07:32.615Z,58.30
2017-11-04T10:10:06.766Z,59.60
2017-11-04T10:12:40.873Z,59.70
2017-11-04T10:15:14.848Z,59.70
2017-11-04T10:17:49.418Z,60.80
2017-11-04T10:20:24.160Z,63.00
2017-11-04T10:22:58.582Z,62.90
2017-11-04T10:25:32.229Z,63.30
2017-11-04T10:28:06.298Z,63.50
2017-11-04T10:30:40.166Z,63.30
2017-11-04T10:33:14.264Z,63.60
2017-11-04T10:35:49.287Z,65.70
2017-11-04T10:38:23.717Z,65.60
2017-11-04T10:40:57.938Z,65.80
2017-11-04T10:43:33.160Z,65.00
2017-11-04T10:46:08.063Z,63.00
2017-11-04T10:48:42.550Z,63.00
2017-11-04T10:51:16.940Z,62.40
2017-11-04T10:53:52.179Z,62.10
2017-11-04T10:56:26.285Z,62.00
2017-11-04T10:59:01.391Z,62.40
2017-11-04T11:01:35.486Z,63.00
2017-11-04T11:04:10.271Z,60.50
2017-11-04T11:06:44.176Z,63.10
2017-11-04T11:09:18.050Z,61.60
2017-11-04T11:11:52.687Z,59.00
2017-11-04T11:14:26.974Z,58.90
2017-11-04T11:17:01.706Z,58.80
2017-11-04T11:19:36.690Z,61.00
2017-11-04T11:22:10.889Z,60.30
2017-11-04T11:24:44.862Z,62.60
2017-11-04T11:27:19.492Z,63.70
2017-11-04T11:29:53.761Z,63.70
2017-11-04T11:32:28.964Z,63.40
2017-11-04T11:35:04.278Z,63.80
2017-11-04T11:37:38.635Z,63.80
2017-11-04T11:40:12.976Z,64.30
2017-11-04T11:42:48.162Z,65.00
2017-11-04T11:45:22.807Z,65.00
2017-11-04T11:47:57.863Z,66.00
2017-11-04T11:50:31.991Z,65.90
2017-11-04T11:53:06.240Z,65.80
2017-11-04T11:55:40.329Z,65.30
2017-11-04T11:58:14.774Z,65.20
2017-11-04T12:00:48.966Z,65.00
2017-11-04T12:03:23.157Z,65.00
2017-11-04T12:05:57.432Z,65.80
2017-11-04T12:08:31.680Z,66.80
2017-11-04T12:11:05.853Z,67.80
2017-11-04T12:13:39.621Z,68.80
2017-11-04T12:16:14.309Z,69.80
2017-11-04T12:18:48.480Z,69.70
2017-11-04T12:21:22.489Z,70.20
2017-11-04T12:23:56.397Z,70.40
2017-11-04T12:26:31.777Z,69.50
2017-11-04T12:29:06.217Z,69.20
2017-11-04T12:31:40.372Z,69.80
2017-11-04T12:34:15.026Z,70.20
2017-11-04T12:36:49.497Z,69.70
2017-11-04T12:39:23.973Z,70.00
2017-11-04T12:41:58.385Z,69.40
2017-11-04T12:44:32.382Z,69.00
2017-11-04T12:47:06.429Z,68.70
2017-11-04T12:49:41.394Z,69.10
2017-11-04T12:52:16.701Z,68.60
2017-11-04T12:54:51.054Z,68.70
2017-11-04T12:57:25.448Z,69.00
2017-11-04T13:00:00.188Z,70.00
2017-11-04T13:02:35.205Z,69.10
2017-11-04T13:05:10.505Z,69.00
2017-11-04T13:07:45.434Z,69.20
2017-11-04T13:10:19.370Z,68.90
2017-11-04T13:12:53.623Z,68.90
2017-11-04T13:15:27.681Z,69.20
2017-11-04T13:18:01.851Z,69.50
2017-11-04T13:20:36.650Z,70.10
2017-11-04T13:23:10.870Z,70.00
2017-11-04T13:25:45.078Z,69.80
2017-11-04T13:28:18.803Z,69.70
2017-11-04T13:30:52.942Z,69.80
2017-11-04T13:33:27.592Z,70.70
2017-11-04T13:36:02.153Z,69.90
2017-11-04T13:38:36.182Z,69.90
2017-11-04T13:41:10.223Z,69.70
2017-11-04T13:43:44.298Z,69.60
2017-11-04T13:46:18.919Z,70.20
2017-11-04T13:48:52.835Z,69.60
2017-11-04T13:51:27.459Z,69.70
2017-11-04T13:54:02.379Z,69.30
2017-11-04T13:56:36.438Z,69.20
2017-11-04T13:59:10.623Z,69.60
2017-11-04T14:01:44.689Z,69.90
2017-11-04T14:04:19.038Z,70.50
2017-11-04T14:06:54.049Z,71.50
2017-11-04T14:09:29.311Z,72.20
2017-11-04T14:12:02.881Z,71.80
2017-11-04T14:14:36.997Z,71.90
2017-11-04T14:17:11.482Z,71.80
2017-11-04T14:19:45.749Z,72.30
2017-11-04T14:22:20.575Z,72.30
2017-11-04T14:24:56.321Z,73.30
2017-11-04T14:27:31.027Z,73.50
2017-11-04T14:30:05.275Z,73.30
2017-11-04T14:32:39.699Z,73.60
2017-11-04T14:35:15.032Z,73.80
2017-11-04T14:37:48.965Z,74.40
2017-11-04T14:40:22.893Z,74.20
2017-11-04T14:42:57.027Z,74.00
2017-11-04T14:45:31.856Z,74.60
2017-11-04T14:48:06.760Z,73.40
2017-11-04T14:50:40.974Z,73.70
2017-11-04T14:53:16.780Z,73.80
2017-11-04T14:55:52.166Z,73.60
2017-11-04T14:58:27.138Z,73.60
2017-11-04T15:01:02.377Z,72.60
2017-11-04T15:03:36.637Z,72.60
2017-11-04T15:06:11.505Z,72.90
2017-11-04T15:08:45.447Z,72.80
2017-11-04T15:11:20.035Z,72.90
2017-11-04T15:13:54.684Z,73.10
2017-11-04T15:16:29.098Z,73.40
2017-11-04T15:19:03.379Z,73.70
2017-11-04T15:21:38.333Z,73.90
2017-11-04T15:24:14.597Z,74.20
2017-11-04T15:26:49.839Z,74.40
2017-11-04T15:29:24.247Z,74.90
2017-11-04T15:31:58.796Z,75.20
2017-11-04T15:34:33.319Z,75.40
2017-11-04T15:37:08.800Z,75.60
2017-11-04T15:39:44.529Z,75.80
2017-11-04T15:42:20.209Z,75.70
2017-11-04T15:44:55.169Z,75.90
2017-11-04T15:47:30.005Z,76.00
2017-11-04T15:50:04.193Z,76.00
2017-11-04T15:52:39.013Z,76.60
2017-11-04T15:55:12.693Z,76.50
2017-11-04T15:57:47.201Z,77.10
2017-11-04T16:00:21.662Z,76.90
2017-11-04T16:02:56.452Z,77.10
2017-11-04T16:05:30.087Z,77.40
2017-11-04T16:08:04.581Z,77.60
2017-11-04T16:10:39.133Z,77.80
2017-11-04T16:13:13.858Z,78.00
2017-11-04T16:15:48.156Z,77.80
2017-11-04T16:18:21.914Z,77.80
2017-11-04T16:20:56.287Z,77.90
2017-11-04T16:23:30.917Z,78.40
2017-11-04T16:26:05.773Z,78.00
2017-11-04T16:28:40.697Z,78.20
2017-11-04T16:31:15.987Z,78.20
2017-11-04T16:33:50.053Z,78.30
2017-11-04T16:36:24.235Z,78.40
2017-11-04T16:38:58.377Z,78.40
2017-11-04T16:41:33.808Z,78.80
2017-11-04T16:44:07.464Z,78.50
2017-11-04T16:46:41.502Z,78.50
2017-11-04T16:49:16.115Z,78.60
2017-11-04T16:51:51.804Z,78.60
2017-11-04T16:54:26.626Z,78.70
2017-11-04T16:57:00.741Z,78.60
2017-11-04T16:59:35.092Z,78.30
2017-11-04T17:02:09.642Z,78.10
2017-11-04T17:04:44.204Z,78.00
2017-11-04T17:07:18.786Z,78.50
2017-11-04T17:12:28.997Z,78.20
2017-11-04T17:15:03.238Z,78.30
2017-11-04T17:17:38.177Z,78.50
2017-11-04T17:20:13.128Z,78.50
2017-11-04T17:22:47.317Z,78.60
2017-11-04T17:25:21.917Z,79.00
2017-11-04T17:27:56.168Z,79.00
2017-11-04T17:30:31.163Z,79.20
2017-11-04T17:33:05.636Z,79.40
2017-11-04T17:35:40.537Z,79.50
2017-11-04T17:38:16.263Z,79.50
2017-11-04T17:40:51.917Z,79.60
2017-11-04T17:43:26.617Z,79.70
2017-11-04T17:46:01.609Z,79.80
2017-11-04T17:48:36.269Z,79.80
2017-11-04T17:51:10.697Z,79.90
2017-11-04T17:53:45.229Z,80.00
2017-11-04T17:56:20.800Z,80.00
2017-11-04T17:58:55.570Z,80.10
2017-11-04T18:01:29.712Z,80.10
2017-11-04T18:04:04.057Z,80.20
2017-11-04T18:06:39.718Z,80.30
2017-11-04T18:09:14.861Z,80.30
2017-11-04T18:11:50.150Z,80.10
2017-11-04T18:14:24.182Z,80.40
2017-11-04T18:16:59.833Z,80.40
2017-11-04T18:19:34.140Z,80.50
2017-11-04T18:22:08.861Z,80.40
2017-11-04T18:24:42.525Z,80.30
2017-11-04T18:27:17.037Z,80.20
2017-11-04T18:29:51.446Z,80.00
2017-11-04T18:32:26.503Z,79.80
2017-11-04T18:35:01.315Z,79.80
2017-11-04T18:37:36.586Z,80.40
2017-11-04T18:40:11.304Z,79.30
2017-11-04T18:42:47.047Z,79.20
2017-11-04T18:45:21.149Z,79.20
2017-11-04T18:47:55.605Z,79.90
2017-11-04T18:50:30.184Z,79.30
2017-11-04T18:53:06.583Z,79.00
2017-11-04T18:55:40.563Z,78.90
2017-11-04T18:58:15.533Z,79.50
2017-11-04T19:00:50.241Z,78.60
2017-11-04T19:03:24.822Z,78.60
2017-11-04T19:05:58.858Z,78.50
2017-11-04T19:08:33.316Z,78.60
2017-11-04T19:11:08.178Z,78.80
2017-11-04T19:13:43.171Z,79.50
2017-11-04T19:16:18.109Z,79.00
2017-11-04T19:18:52.807Z,79.00
2017-11-04T19:21:27.373Z,78.90
2017-11-04T19:24:03.528Z,78.80
2017-11-04T19:29:13.499Z,78.80
2017-11-04T19:31:48.431Z,78.80
2017-11-04T19:34:25.141Z,79.30
2017-11-04T19:39:35.742Z,79.00
2017-11-04T19:42:09.935Z,78.90
2017-11-04T19:44:46.038Z,78.90
2017-11-04T19:47:20.753Z,78.90
2017-11-04T19:49:55.549Z,78.60
2017-11-04T19:52:31.651Z,79.00
2017-11-04T19:55:05.936Z,78.50
2017-11-04T19:57:40.531Z,78.50
2017-11-04T20:00:15.477Z,78.60
2017-11-04T20:02:50.019Z,79.00
2017-11-04T20:05:24.741Z,78.90
2017-11-04T20:07:59.666Z,78.20
2017-11-04T20:10:35.471Z,78.10
2017-11-04T20:13:09.715Z,78.00
2017-11-04T20:15:44.624Z,77.90
2017-11-04T20:18:19.409Z,77.90
2017-11-04T20:20:54.127Z,78.00
2017-11-04T20:23:29.921Z,78.60
2017-11-04T20:26:05.112Z,78.00
2017-11-04T20:28:40.610Z,78.10
2017-11-04T20:31:14.793Z,78.10
2017-11-04T20:33:51.063Z,78.10
2017-11-04T20:36:26.281Z,77.90
2017-11-04T20:39:01.309Z,77.80
2017-11-04T20:41:35.685Z,77.80
2017-11-04T20:44:09.934Z,77.80
2017-11-04T20:46:44.520Z,77.80
2017-11-04T20:49:19.823Z,77.90
2017-11-04T20:51:54.161Z,78.00
2017-11-04T20:54:28.267Z,78.70
2017-11-04T20:57:03.266Z,78.90
2017-11-04T20:59:38.157Z,79.00
2017-11-04T21:02:13.509Z,79.10
2017-11-04T21:04:47.362Z,79.10
2017-11-04T21:07:21.808Z,79.20
2017-11-04T21:09:56.488Z,79.40
2017-11-04T21:12:32.418Z,79.40
2017-11-04T21:15:07.792Z,80.00
2017-11-04T21:17:43.134Z,80.00
2017-11-04T21:20:17.655Z,79.40
2017-11-04T21:22:52.391Z,79.70
2017-11-04T21:25:27.109Z,79.60
2017-11-04T21:28:02.541Z,79.80
2017-11-04T21:30:36.445Z,79.80
2017-11-04T21:35:45.985Z,79.10
2017-11-04T21:38:21.069Z,78.80
2017-11-04T21:40:55.093Z,78.90
2017-11-04T21:43:29.673Z,78.90
2017-11-04T21:46:04.664Z,79.00
2017-11-04T21:48:39.451Z,79.10
2017-11-04T21:51:13.889Z,79.10
2017-11-04T21:53:48.897Z,79.10
2017-11-04T21:56:23.392Z,79.00
2017-11-04T21:58:57.918Z,78.80
2017-11-04T22:01:34.643Z,79.30
2017-11-04T22:04:09.668Z,78.80
2017-11-04T22:06:44.013Z,78.70
2017-11-04T22:09:20.134Z,79.00
2017-11-04T22:11:55.375Z,78.40
2017-11-04T22:14:31.144Z,78.80
2017-11-04T22:17:05.259Z,78.20
2017-11-04T22:19:41.113Z,78.50
2017-11-04T22:22:15.658Z,78.80
2017-11-04T22:24:50.940Z,79.10
2017-11-04T22:27:25.580Z,78.30
2017-11-04T22:30:00.010Z,78.30
2017-11-04T22:32:34.207Z,78.10
2017-11-04T22:35:08.113Z,78.10
2017-11-04T22:37:42.088Z,78.60
2017-11-04T22:40:16.841Z,78.40
2017-11-04T22:42:51.984Z,78.30
2017-11-04T22:45:26.097Z,78.30
2017-11-04T22:48:00.137Z,78.30
2017-11-04T22:50:34.160Z,79.70
2017-11-04T22:53:08.841Z,78.50
2017-11-04T22:55:44.093Z,78.60
2017-11-04T22:58:18.136Z,78.50
2017-11-04T23:00:52.132Z,79.60
2017-11-04T23:03:27.977Z,79.00
2017-11-04T23:06:02.138Z,78.30
2017-11-04T23:08:36.210Z,78.40
2017-11-04T23:13:45.178Z,78.40
2017-11-04T23:18:55.389Z,78.30
2017-11-04T23:21:29.929Z,78.30
2017-11-04T23:24:03.881Z,78.60
2017-11-04T23:26:38.673Z,78.80
2017-11-04T23:29:15.767Z,79.60
2017-11-04T23:31:50.251Z,79.40
2017-11-04T23:34:24.760Z,79.70
2017-11-04T23:37:00.353Z,79.90
2017-11-04T23:39:34.152Z,80.00
2017-11-04T23:42:09.582Z,80.30
2017-11-04T23:44:43.607Z,80.40
2017-11-04T23:47:17.961Z,80.50
2017-11-04T23:49:52.317Z,80.80
2017-11-04T23:52:26.123Z,80.90
2017-11-04T23:55:00.431Z,80.80
2017-11-04T23:57:34.315Z,81.00
